createdAt,value
2023-05-18T00:00:19.425Z,101522.06
2023-05-18T00:01:22.129Z,101520.50
2023-05-18T00:02:23.955Z,101532.13
2023-05-18T00:03:28.352Z,101527.81
2023-05-18T00:04:31.235Z,101524.50
2023-05-18T00:05:34.249Z,101529.94
2023-05-18T00:06:36.381Z,101535.50
2023-05-18T00:07:41.117Z,101525.19
2023-05-18T00:08:42.668Z,101533.28
2023-05-18T00:09:45.225Z,101519.34
2023-05-18T00:10:46.739Z,101530.38
2023-05-18T00:11:49.202Z,101528.34
2023-05-18T00:12:50.890Z,101527.44
2023-05-18T00:13:53.346Z,101525.28
2023-05-18T00:14:55.011Z,101535.63
2023-05-18T00:15:57.699Z,101527.81
2023-05-18T00:17:01.787Z,101536.75
2023-05-18T00:18:04.503Z,101539.97
2023-05-18T00:19:06.201Z,101537.38
2023-05-18T00:20:09.553Z,101534.28
2023-05-18T00:21:11.713Z,101537.53
2023-05-18T00:22:18.764Z,101536.38
2023-05-18T00:23:23.467Z,101543.28
2023-05-18T00:24:25.997Z,101537.09
2023-05-18T00:25:27.644Z,101540.19
2023-05-18T00:26:30.185Z,101544.88
2023-05-18T00:27:32.688Z,101534.59
2023-05-18T00:28:35.161Z,101538.28
2023-05-18T00:29:36.750Z,101534.47
2023-05-18T00:30:39.427Z,101542.25
2023-05-18T00:31:42.298Z,101539.63
2023-05-18T00:32:45.550Z,101534.38
2023-05-18T00:33:47.106Z,101538.47
2023-05-18T00:34:49.569Z,101536.75
2023-05-18T00:35:51.334Z,101535.13
2023-05-18T00:36:53.837Z,101535.63
2023-05-18T00:37:55.339Z,101540.41
2023-05-18T00:38:59.440Z,101537.38
2023-05-18T00:40:01.034Z,101535.63
2023-05-18T00:41:03.715Z,101538.66
2023-05-18T00:42:05.803Z,101541.59
2023-05-18T00:43:08.352Z,101533.94
2023-05-18T00:44:10.175Z,101538.13
2023-05-18T00:45:12.715Z,101543.19
2023-05-18T00:46:14.430Z,101538.31
2023-05-18T00:47:18.458Z,101544.34
2023-05-18T00:48:22.862Z,101545.66
2023-05-18T00:49:25.639Z,101551.06
2023-05-18T00:50:27.485Z,101550.97
2023-05-18T00:51:30.785Z,101540.22
2023-05-18T00:52:32.965Z,101547.81
2023-05-18T00:53:36.219Z,101545.25
2023-05-18T00:54:39.167Z,101546.00
2023-05-18T00:55:41.813Z,101554.19
2023-05-18T00:56:46.163Z,101542.78
2023-05-18T00:57:48.756Z,101552.50
2023-05-18T00:58:52.895Z,101548.06
2023-05-18T00:59:56.365Z,101556.94
2023-05-18T01:00:58.114Z,101554.69
2023-05-18T01:02:01.644Z,101548.78
2023-05-18T01:03:04.045Z,101557.53
2023-05-18T01:04:06.590Z,101554.41
2023-05-18T01:05:09.096Z,101559.94
2023-05-18T01:06:12.881Z,101557.53
2023-05-18T01:07:16.532Z,101556.78
2023-05-18T01:08:19.678Z,101554.97
2023-05-18T01:09:21.288Z,101561.31
2023-05-18T01:10:25.126Z,101560.44
2023-05-18T01:11:35.245Z,101560.63
2023-05-18T01:12:44.463Z,101562.81
2023-05-18T01:14:02.270Z,101567.97
2023-05-18T01:15:09.660Z,101561.16
2023-05-18T01:16:17.009Z,101561.75
2023-05-18T01:17:27.942Z,101564.56
2023-05-18T01:18:39.048Z,101571.84
2023-05-18T01:20:09.927Z,101568.78
2023-05-18T01:21:20.393Z,101565.28
2023-05-18T01:22:33.586Z,101560.91
2023-05-18T01:24:10.931Z,101561.09
2023-05-18T01:25:21.589Z,101560.66
2023-05-18T01:26:29.822Z,101560.81
2023-05-18T01:27:37.480Z,101571.56
2023-05-18T01:28:40.013Z,101567.13
2023-05-18T01:29:42.751Z,101569.94
2023-05-18T01:30:45.997Z,101569.53
2023-05-18T01:31:47.585Z,101565.66
2023-05-18T01:32:50.199Z,101564.09
2023-05-18T01:33:51.769Z,101573.06
2023-05-18T01:34:54.253Z,101573.53
2023-05-18T01:35:55.880Z,101570.94
2023-05-18T01:36:58.329Z,101575.63
2023-05-18T01:37:59.894Z,101572.91
2023-05-18T01:39:03.036Z,101575.41
2023-05-18T01:40:06.935Z,101577.53
2023-05-18T01:41:15.857Z,101572.53
2023-05-18T01:42:25.472Z,101571.66
2023-05-18T01:43:32.822Z,101574.47
2023-05-18T01:44:39.760Z,101574.88
2023-05-18T01:45:47.125Z,101579.75
2023-05-18T01:46:57.245Z,101575.97
2023-05-18T01:48:01.901Z,101576.19
2023-05-18T01:49:22.120Z,101581.72
2023-05-18T01:50:31.531Z,101578.91
2023-05-18T01:51:42.121Z,101577.50
2023-05-18T01:52:48.508Z,101576.59
2023-05-18T01:53:58.011Z,101570.50
2023-05-18T01:55:03.373Z,101575.31
2023-05-18T01:56:09.134Z,101568.59
2023-05-18T01:57:11.377Z,101580.75
2023-05-18T01:58:16.471Z,101573.84
2023-05-18T01:59:18.179Z,101581.91
2023-05-18T02:00:21.606Z,101578.03
2023-05-18T02:01:24.018Z,101577.06
2023-05-18T02:02:26.901Z,101582.38
2023-05-18T02:03:28.642Z,101580.53
2023-05-18T02:04:31.796Z,101579.94
2023-05-18T02:05:33.368Z,101572.75
2023-05-18T02:06:36.812Z,101574.25
2023-05-18T02:07:38.492Z,101577.63
2023-05-18T02:08:41.255Z,101578.94
2023-05-18T02:09:44.222Z,101574.44
2023-05-18T02:10:46.708Z,101578.78
2023-05-18T02:11:48.324Z,101572.84
2023-05-18T02:12:52.853Z,101572.38
2023-05-18T02:13:55.814Z,101579.16
2023-05-18T02:14:58.479Z,101573.56
2023-05-18T02:16:00.119Z,101580.78
2023-05-18T02:17:02.824Z,101574.19
2023-05-18T02:18:04.538Z,101578.28
2023-05-18T02:19:07.390Z,101577.03
2023-05-18T02:20:10.140Z,101576.06
2023-05-18T02:21:13.752Z,101575.34
2023-05-18T02:22:15.259Z,101572.78
2023-05-18T02:23:17.743Z,101572.09
2023-05-18T02:24:19.288Z,101581.66
2023-05-18T02:25:21.894Z,101579.38
2023-05-18T02:26:23.390Z,101573.56
2023-05-18T02:27:25.883Z,101577.16
2023-05-18T02:28:27.682Z,101576.88
2023-05-18T02:29:31.434Z,101582.53
2023-05-18T02:30:34.425Z,101573.13
2023-05-18T02:31:36.962Z,101574.19
2023-05-18T02:32:38.809Z,101568.50
2023-05-18T02:33:41.624Z,101576.06
2023-05-18T02:34:43.371Z,101573.94
2023-05-18T02:35:46.517Z,101571.66
2023-05-18T02:36:48.803Z,101571.31
2023-05-18T02:37:51.331Z,101577.56
2023-05-18T02:38:52.890Z,101575.19
2023-05-18T02:39:55.702Z,101571.31
2023-05-18T02:40:57.237Z,101571.66
2023-05-18T02:41:59.661Z,101578.22
2023-05-18T02:43:01.324Z,101573.72
2023-05-18T02:44:03.872Z,101570.25
2023-05-18T02:45:08.079Z,101577.81
2023-05-18T02:46:10.575Z,101576.44
2023-05-18T02:47:12.097Z,101576.94
2023-05-18T02:48:14.580Z,101568.78
2023-05-18T02:49:16.249Z,101564.84
2023-05-18T02:50:18.775Z,101568.06
2023-05-18T02:51:21.612Z,101574.53
2023-05-18T02:52:24.189Z,101570.53
2023-05-18T02:53:26.447Z,101570.78
2023-05-18T02:54:29.042Z,101578.56
2023-05-18T02:55:30.844Z,101570.31
2023-05-18T02:56:33.779Z,101571.59
2023-05-18T02:57:35.335Z,101572.88
2023-05-18T02:58:37.805Z,101569.31
2023-05-18T02:59:39.601Z,101572.25
2023-05-18T03:00:43.618Z,101571.94
2023-05-18T03:01:45.213Z,101574.81
2023-05-18T03:02:48.663Z,101575.75
2023-05-18T03:03:51.374Z,101573.16
2023-05-18T03:04:57.250Z,101573.38
2023-05-18T03:06:00.465Z,101571.97
2023-05-18T03:07:03.593Z,101571.72
2023-05-18T03:08:05.258Z,101575.41
2023-05-18T03:09:07.707Z,101565.94
2023-05-18T03:10:09.721Z,101570.31
2023-05-18T03:11:12.238Z,101568.19
2023-05-18T03:12:13.796Z,101570.66
2023-05-18T03:13:16.325Z,101570.31
2023-05-18T03:14:17.809Z,101565.69
2023-05-18T03:15:20.769Z,101572.94
2023-05-18T03:16:28.633Z,101569.59
2023-05-18T03:17:31.338Z,101567.94
2023-05-18T03:18:32.856Z,101566.66
2023-05-18T03:19:36.027Z,101568.09
2023-05-18T03:20:38.082Z,101564.88
2023-05-18T03:21:41.347Z,101570.06
2023-05-18T03:22:42.883Z,101565.81
2023-05-18T03:23:45.391Z,101571.38
2023-05-18T03:24:46.994Z,101567.22
2023-05-18T03:25:53.622Z,101567.25
2023-05-18T03:26:55.250Z,101571.50
2023-05-18T03:27:58.230Z,101570.06
2023-05-18T03:29:01.109Z,101574.31
2023-05-18T03:30:04.162Z,101570.78
2023-05-18T03:31:06.040Z,101567.09
2023-05-18T03:32:12.710Z,101569.59
2023-05-18T03:33:14.482Z,101573.25
2023-05-18T03:34:17.065Z,101573.03
2023-05-18T03:35:18.590Z,101571.50
2023-05-18T03:36:22.406Z,101570.91
2023-05-18T03:37:23.947Z,101576.47
2023-05-18T03:38:26.538Z,101580.00
2023-05-18T03:39:28.067Z,101578.09
2023-05-18T03:40:30.787Z,101576.13
2023-05-18T03:41:32.369Z,101570.91
2023-05-18T03:42:34.891Z,101572.91
2023-05-18T03:43:36.392Z,101581.38
2023-05-18T03:44:39.063Z,101573.28
2023-05-18T03:45:40.858Z,101574.53
2023-05-18T03:46:43.361Z,101580.44
2023-05-18T03:47:46.326Z,101584.56
2023-05-18T03:48:48.810Z,101580.31
2023-05-18T03:49:50.588Z,101579.34
2023-05-18T03:50:53.088Z,101591.59
2023-05-18T03:51:54.614Z,101580.00
2023-05-18T03:52:57.330Z,101584.50
2023-05-18T03:53:59.050Z,101591.00
2023-05-18T03:55:02.904Z,101582.38
2023-05-18T03:56:04.904Z,101585.19
2023-05-18T03:57:07.646Z,101586.38
2023-05-18T03:58:09.389Z,101586.88
2023-05-18T03:59:12.028Z,101590.63
2023-05-18T04:00:15.779Z,101587.09
2023-05-18T04:01:19.208Z,101588.00
2023-05-18T04:02:21.174Z,101587.16
2023-05-18T04:03:27.321Z,101592.25
2023-05-18T04:04:29.042Z,101592.41
2023-05-18T04:05:31.753Z,101588.88
2023-05-18T04:06:35.388Z,101592.53
2023-05-18T04:07:44.055Z,101592.06
2023-05-18T04:08:47.045Z,101600.09
2023-05-18T04:09:48.977Z,101588.03
2023-05-18T04:10:51.677Z,101587.31
2023-05-18T04:11:53.218Z,101591.94
2023-05-18T04:12:55.803Z,101585.19
2023-05-18T04:13:57.957Z,101592.63
2023-05-18T04:15:00.847Z,101597.91
2023-05-18T04:16:04.284Z,101590.53
2023-05-18T04:17:07.014Z,101593.34
2023-05-18T04:18:08.638Z,101594.88
2023-05-18T04:19:13.575Z,101596.53
2023-05-18T04:20:15.435Z,101589.66
2023-05-18T04:21:19.391Z,101603.00
2023-05-18T04:22:22.047Z,101599.66
2023-05-18T04:23:24.535Z,101600.78
2023-05-18T04:24:26.925Z,101603.78
2023-05-18T04:25:29.701Z,101606.44
2023-05-18T04:26:31.666Z,101609.75
2023-05-18T04:27:34.331Z,101608.34
2023-05-18T04:28:40.448Z,101608.63
2023-05-18T04:29:47.064Z,101605.78
2023-05-18T04:30:48.603Z,101616.16
2023-05-18T04:31:51.110Z,101612.44
2023-05-18T04:32:54.587Z,101623.19
2023-05-18T04:33:58.916Z,101618.66
2023-05-18T04:35:02.292Z,101619.19
2023-05-18T04:36:05.555Z,101621.97
2023-05-18T04:37:07.729Z,101622.72
2023-05-18T04:38:10.736Z,101625.59
2023-05-18T04:39:12.480Z,101618.88
2023-05-18T04:40:16.920Z,101619.03
2023-05-18T04:41:20.477Z,101617.25
2023-05-18T04:42:23.033Z,101628.22
2023-05-18T04:43:24.514Z,101620.91
2023-05-18T04:44:27.649Z,101610.47
2023-05-18T04:45:30.173Z,101617.03
2023-05-18T04:46:34.522Z,101622.22
2023-05-18T04:47:36.134Z,101615.63
2023-05-18T04:48:38.636Z,101618.19
2023-05-18T04:49:40.203Z,101619.63
2023-05-18T04:50:45.498Z,101625.81
2023-05-18T04:51:47.040Z,101620.94
2023-05-18T04:52:51.823Z,101625.81
2023-05-18T04:53:53.395Z,101622.19
2023-05-18T04:54:55.876Z,101625.22
2023-05-18T04:55:57.490Z,101629.19
2023-05-18T04:57:02.153Z,101625.28
2023-05-18T04:58:04.844Z,101619.53
2023-05-18T04:59:07.344Z,101627.53
2023-05-18T05:00:10.039Z,101626.94
2023-05-18T05:01:12.930Z,101636.59
2023-05-18T05:02:14.684Z,101626.88
2023-05-18T05:03:17.365Z,101634.03
2023-05-18T05:04:19.520Z,101630.03
2023-05-18T05:05:22.365Z,101631.22
2023-05-18T05:06:25.560Z,101626.22
2023-05-18T05:07:28.028Z,101630.50
2023-05-18T05:08:29.541Z,101625.75
2023-05-18T05:09:32.072Z,101626.91
2023-05-18T05:10:33.661Z,101628.78
2023-05-18T05:11:36.192Z,101636.09
2023-05-18T05:12:38.529Z,101629.31
2023-05-18T05:13:41.062Z,101633.38
2023-05-18T05:14:42.566Z,101635.13
2023-05-18T05:15:45.063Z,101626.13
2023-05-18T05:16:46.602Z,101632.75
2023-05-18T05:17:49.591Z,101633.19
2023-05-18T05:18:51.245Z,101629.28
2023-05-18T05:19:53.780Z,101632.03
2023-05-18T05:20:55.447Z,101629.56
2023-05-18T05:21:59.245Z,101632.28
2023-05-18T05:23:00.801Z,101634.59
2023-05-18T05:24:05.053Z,101631.47
2023-05-18T05:25:07.191Z,101638.41
2023-05-18T05:26:09.703Z,101630.66
2023-05-18T05:27:11.388Z,101639.94
2023-05-18T05:28:13.879Z,101642.41
2023-05-18T05:29:15.592Z,101621.47
2023-05-18T05:30:18.078Z,101630.84
2023-05-18T05:31:19.655Z,101631.19
2023-05-18T05:32:22.197Z,101627.91
2023-05-18T05:33:23.714Z,101627.63
2023-05-18T05:34:26.303Z,101635.13
2023-05-18T05:35:27.865Z,101632.09
2023-05-18T05:36:31.773Z,101632.09
2023-05-18T05:37:34.971Z,101634.50
2023-05-18T05:38:37.435Z,101629.44
2023-05-18T05:39:39.014Z,101630.03
2023-05-18T05:40:41.447Z,101625.53
2023-05-18T05:41:42.984Z,101636.34
2023-05-18T05:42:45.694Z,101630.88
2023-05-18T05:43:47.207Z,101632.41
2023-05-18T05:44:49.630Z,101641.81
2023-05-18T05:45:51.108Z,101637.72
2023-05-18T05:46:53.638Z,101636.94
2023-05-18T05:47:55.224Z,101638.34
2023-05-18T05:48:57.680Z,101635.88
2023-05-18T05:50:00.186Z,101632.97
2023-05-18T05:51:01.751Z,101638.88
2023-05-18T05:52:04.430Z,101641.81
2023-05-18T05:53:07.485Z,101640.63
2023-05-18T05:54:10.837Z,101637.50
2023-05-18T05:55:12.470Z,101640.34
2023-05-18T05:56:14.937Z,101636.50
2023-05-18T05:57:16.544Z,101638.63
2023-05-18T05:58:19.080Z,101642.50
2023-05-18T05:59:22.339Z,101637.50
2023-05-18T06:00:25.304Z,101639.47
2023-05-18T06:01:27.491Z,101641.28
2023-05-18T06:02:30.098Z,101648.19
2023-05-18T06:03:34.344Z,101638.84
2023-05-18T06:04:38.374Z,101633.34
2023-05-18T06:05:41.062Z,101633.25
2023-05-18T06:06:43.824Z,101634.09
2023-05-18T06:07:46.257Z,101641.63
2023-05-18T06:08:49.127Z,101640.47
2023-05-18T06:09:51.639Z,101638.47
2023-05-18T06:10:53.649Z,101638.66
2023-05-18T06:11:56.281Z,101643.09
2023-05-18T06:12:57.820Z,101637.69
2023-05-18T06:14:00.422Z,101633.59
2023-05-18T06:15:02.569Z,101641.72
2023-05-18T06:16:05.226Z,101641.34
2023-05-18T06:17:06.812Z,101637.81
2023-05-18T06:18:10.856Z,101643.03
2023-05-18T06:19:13.732Z,101634.72
2023-05-18T06:20:16.414Z,101636.53
2023-05-18T06:21:18.069Z,101641.00
2023-05-18T06:22:20.626Z,101636.91
2023-05-18T06:23:23.512Z,101646.41
2023-05-18T06:24:27.381Z,101634.13
2023-05-18T06:25:29.145Z,101636.56
2023-05-18T06:26:31.860Z,101639.06
2023-05-18T06:27:33.356Z,101636.25
2023-05-18T06:28:35.802Z,101643.00
2023-05-18T06:29:37.425Z,101635.38
2023-05-18T06:30:39.908Z,101633.16
2023-05-18T06:31:41.533Z,101636.44
2023-05-18T06:32:44.155Z,101636.56
2023-05-18T06:33:45.831Z,101632.88
2023-05-18T06:34:50.588Z,101645.06
2023-05-18T06:35:52.165Z,101635.31
2023-05-18T06:36:54.651Z,101637.94
2023-05-18T06:37:56.159Z,101633.94
2023-05-18T06:38:58.932Z,101638.81
2023-05-18T06:40:01.814Z,101630.94
2023-05-18T06:41:04.424Z,101631.88
2023-05-18T06:42:06.573Z,101641.38
2023-05-18T06:43:09.192Z,101638.72
2023-05-18T06:44:10.722Z,101639.44
2023-05-18T06:45:13.571Z,101649.72
2023-05-18T06:46:22.684Z,101641.06
2023-05-18T06:47:24.304Z,101638.88
2023-05-18T06:48:29.166Z,101642.09
2023-05-18T06:49:30.748Z,101642.72
2023-05-18T06:50:33.254Z,101644.19
2023-05-18T06:51:35.068Z,101645.13
2023-05-18T06:52:37.591Z,101643.75
2023-05-18T06:53:39.112Z,101636.69
2023-05-18T06:54:41.601Z,101642.03
2023-05-18T06:55:44.431Z,101650.63
2023-05-18T06:56:47.356Z,101641.50
2023-05-18T06:57:48.892Z,101648.94
2023-05-18T06:58:51.336Z,101650.56
2023-05-18T06:59:53.849Z,101648.56
2023-05-18T07:00:56.438Z,101648.63
2023-05-18T07:01:58.146Z,101656.44
2023-05-18T07:03:01.678Z,101651.91
2023-05-18T07:04:04.561Z,101655.88
2023-05-18T07:05:09.097Z,101647.56
2023-05-18T07:06:11.627Z,101649.78
2023-05-18T07:07:13.193Z,101659.38
2023-05-18T07:08:15.755Z,101658.47
2023-05-18T07:09:17.338Z,101658.69
2023-05-18T07:10:19.807Z,101653.25
2023-05-18T07:11:22.914Z,101652.31
2023-05-18T07:12:26.082Z,101652.91
2023-05-18T07:13:27.589Z,101651.00
2023-05-18T07:14:30.103Z,101646.53
2023-05-18T07:15:31.788Z,101659.66
2023-05-18T07:16:35.524Z,101662.59
2023-05-18T07:17:37.820Z,101656.38
2023-05-18T07:18:42.096Z,101644.13
2023-05-18T07:19:43.701Z,101648.97
2023-05-18T07:20:46.197Z,101657.34
2023-05-18T07:21:47.840Z,101652.63
2023-05-18T07:22:50.971Z,101654.78
2023-05-18T07:23:53.499Z,101647.69
2023-05-18T07:24:56.408Z,101655.38
2023-05-18T07:25:57.914Z,101656.19
2023-05-18T07:27:01.780Z,101652.03
2023-05-18T07:28:03.326Z,101636.22
2023-05-18T07:29:05.799Z,101637.72
2023-05-18T07:30:08.838Z,101642.28
2023-05-18T07:31:11.596Z,101634.09
2023-05-18T07:32:14.116Z,101634.22
2023-05-18T07:33:16.573Z,101631.78
2023-05-18T07:34:18.221Z,101624.44
2023-05-18T07:35:21.996Z,101633.28
2023-05-18T07:36:24.119Z,101634.88
2023-05-18T07:37:26.653Z,101633.22
2023-05-18T07:38:28.210Z,101635.53
2023-05-18T07:39:30.647Z,101633.84
2023-05-18T07:40:32.178Z,101632.47
2023-05-18T07:41:34.719Z,101643.25
2023-05-18T07:42:38.545Z,101630.69
2023-05-18T07:43:41.032Z,101632.88
2023-05-18T07:44:43.544Z,101634.63
2023-05-18T07:45:45.073Z,101636.34
2023-05-18T07:46:48.191Z,101629.41
2023-05-18T07:47:49.975Z,101636.38
2023-05-18T07:48:52.628Z,101637.28
2023-05-18T07:49:54.169Z,101635.81
2023-05-18T07:50:56.898Z,101642.53
2023-05-18T07:51:59.370Z,101636.06
2023-05-18T07:53:01.870Z,101630.38
2023-05-18T07:54:03.591Z,101634.47
2023-05-18T07:55:07.253Z,101637.38
2023-05-18T07:56:09.183Z,101642.94
2023-05-18T07:57:11.675Z,101627.88
2023-05-18T07:58:14.744Z,101636.94
2023-05-18T07:59:17.231Z,101632.88
2023-05-18T08:00:20.451Z,101631.34
2023-05-18T08:01:27.252Z,101627.38
2023-05-18T08:02:31.317Z,101635.72
2023-05-18T08:03:35.518Z,101634.59
2023-05-18T08:04:37.068Z,101631.53
2023-05-18T08:05:39.767Z,101626.84
2023-05-18T08:06:41.302Z,101629.09
2023-05-18T08:07:43.785Z,101635.47
2023-05-18T08:08:45.406Z,101632.66
2023-05-18T08:09:47.974Z,101630.06
2023-05-18T08:10:51.005Z,101629.91
2023-05-18T08:11:53.587Z,101629.00
2023-05-18T08:12:55.286Z,101623.31
2023-05-18T08:13:59.051Z,101628.44
2023-05-18T08:15:00.592Z,101628.09
2023-05-18T08:16:11.870Z,101629.09
2023-05-18T08:17:14.928Z,101633.34
2023-05-18T08:18:16.576Z,101631.81
2023-05-18T08:19:19.317Z,101634.03
2023-05-18T08:20:20.943Z,101626.22
2023-05-18T08:21:23.618Z,101631.00
2023-05-18T08:22:25.195Z,101627.44
2023-05-18T08:23:27.992Z,101632.22
2023-05-18T08:24:30.618Z,101631.28
2023-05-18T08:25:32.551Z,101627.13
2023-05-18T08:26:36.057Z,101631.34
2023-05-18T08:27:37.625Z,101623.91
2023-05-18T08:28:41.086Z,101619.31
2023-05-18T08:29:43.961Z,101622.63
2023-05-18T08:30:46.566Z,101629.47
2023-05-18T08:31:49.711Z,101629.19
2023-05-18T08:32:52.410Z,101626.44
2023-05-18T08:33:53.983Z,101625.63
2023-05-18T08:34:56.574Z,101628.91
2023-05-18T08:35:58.423Z,101629.19
2023-05-18T08:37:01.535Z,101630.28
2023-05-18T08:38:05.545Z,101628.56
2023-05-18T08:39:09.338Z,101627.16
2023-05-18T08:40:13.254Z,101636.63
2023-05-18T08:41:21.020Z,101637.81
2023-05-18T08:42:27.725Z,101625.22
2023-05-18T08:43:42.779Z,101633.59
2023-05-18T08:44:52.286Z,101623.75
2023-05-18T08:46:05.012Z,101624.78
2023-05-18T08:47:10.709Z,101626.75
2023-05-18T08:48:16.254Z,101622.63
2023-05-18T08:49:20.696Z,101631.41
2023-05-18T08:50:24.569Z,101629.78
2023-05-18T08:51:31.824Z,101628.41
2023-05-18T08:52:36.508Z,101625.13
2023-05-18T08:53:39.910Z,101623.75
2023-05-18T08:54:41.784Z,101630.03
2023-05-18T08:55:46.658Z,101625.13
2023-05-18T08:56:49.661Z,101627.56
2023-05-18T08:57:56.572Z,101623.72
2023-05-18T08:58:59.081Z,101623.72
2023-05-18T09:00:05.299Z,101628.69
2023-05-18T09:01:07.128Z,101624.28
2023-05-18T09:02:09.938Z,101629.19
2023-05-18T09:03:11.630Z,101620.97
2023-05-18T09:04:14.436Z,101626.44
2023-05-18T09:05:16.781Z,101614.06
2023-05-18T09:06:22.255Z,101618.22
2023-05-18T09:07:27.502Z,101616.31
2023-05-18T09:08:31.140Z,101609.47
2023-05-18T09:09:34.192Z,101614.63
2023-05-18T09:10:36.626Z,101609.47
2023-05-18T09:11:39.658Z,101613.03
2023-05-18T09:12:43.319Z,101615.78
2023-05-18T09:13:46.736Z,101611.66
2023-05-18T09:14:48.876Z,101608.91
2023-05-18T09:15:52.673Z,101613.31
2023-05-18T09:16:55.773Z,101613.56
2023-05-18T09:17:57.413Z,101615.22
2023-05-18T09:18:59.999Z,101616.06
2023-05-18T09:20:01.683Z,101612.22
2023-05-18T09:21:04.507Z,101605.59
2023-05-18T09:22:07.697Z,101607.00
2023-05-18T09:23:12.022Z,101612.19
2023-05-18T09:24:15.336Z,101599.84
2023-05-18T09:25:18.949Z,101604.91
2023-05-18T09:26:22.518Z,101604.47
2023-05-18T09:27:24.359Z,101599.63
2023-05-18T09:28:28.867Z,101597.81
2023-05-18T09:29:32.977Z,101595.00
2023-05-18T09:30:40.840Z,101595.50
2023-05-18T09:31:45.658Z,101592.66
2023-05-18T09:32:48.666Z,101597.09
2023-05-18T09:33:51.603Z,101601.63
2023-05-18T09:34:55.382Z,101604.13
2023-05-18T09:35:57.140Z,101600.56
2023-05-18T09:36:59.826Z,101600.50
2023-05-18T09:38:03.582Z,101604.47
2023-05-18T09:39:09.476Z,101607.69
2023-05-18T09:40:12.555Z,101607.78
2023-05-18T09:41:16.430Z,101608.56
2023-05-18T09:42:18.885Z,101606.16
2023-05-18T09:43:20.918Z,101600.13
2023-05-18T09:44:31.641Z,101596.41
2023-05-18T09:45:33.239Z,101596.47
2023-05-18T09:46:37.228Z,101594.00
2023-05-18T09:47:41.079Z,101596.75
2023-05-18T09:48:47.337Z,101592.94
2023-05-18T09:49:49.002Z,101602.50
2023-05-18T09:50:51.506Z,101597.25
2023-05-18T09:51:53.541Z,101599.25
2023-05-18T09:52:57.449Z,101599.72
2023-05-18T09:54:00.208Z,101590.19
2023-05-18T09:55:01.932Z,101605.25
2023-05-18T09:56:06.226Z,101608.59
2023-05-18T09:57:11.196Z,101607.41
2023-05-18T09:58:14.364Z,101597.66
2023-05-18T09:59:17.170Z,101597.34
2023-05-18T10:00:20.764Z,101606.25
2023-05-18T10:01:24.379Z,101598.44
2023-05-18T10:02:26.972Z,101594.53
2023-05-18T10:03:36.855Z,101599.22
2023-05-18T10:04:40.541Z,101600.50
2023-05-18T10:05:42.680Z,101593.97
2023-05-18T10:06:50.304Z,101592.69
2023-05-18T10:07:52.078Z,101595.72
2023-05-18T10:08:57.663Z,101599.47
2023-05-18T10:10:03.514Z,101592.47
2023-05-18T10:11:06.684Z,101589.22
2023-05-18T10:12:12.558Z,101594.31
2023-05-18T10:13:19.479Z,101592.28
2023-05-18T10:14:24.952Z,101592.13
2023-05-18T10:15:27.486Z,101589.28
2023-05-18T10:16:29.115Z,101590.53
2023-05-18T10:17:34.879Z,101580.03
2023-05-18T10:18:39.860Z,101587.81
2023-05-18T10:19:42.397Z,101586.03
2023-05-18T10:20:45.751Z,101579.56
2023-05-18T10:21:50.407Z,101583.63
2023-05-18T10:22:55.512Z,101589.16
2023-05-18T10:23:59.885Z,101584.25
2023-05-18T10:25:04.600Z,101577.34
2023-05-18T10:26:09.846Z,101576.72
2023-05-18T10:27:14.471Z,101583.22
2023-05-18T10:28:24.350Z,101592.13
2023-05-18T10:29:26.151Z,101583.19
2023-05-18T10:30:29.517Z,101579.53
2023-05-18T10:31:33.912Z,101579.00
2023-05-18T10:32:36.582Z,101573.81
2023-05-18T10:33:40.731Z,101581.25
2023-05-18T10:34:43.544Z,101575.66
2023-05-18T10:35:49.298Z,101573.28
2023-05-18T10:36:51.795Z,101573.91
2023-05-18T10:37:55.660Z,101573.09
2023-05-18T10:39:00.898Z,101574.41
2023-05-18T10:40:04.400Z,101568.13
2023-05-18T10:41:08.619Z,101566.53
2023-05-18T10:42:11.955Z,101568.16
2023-05-18T10:43:18.869Z,101560.94
2023-05-18T10:44:23.230Z,101561.63
2023-05-18T10:45:26.455Z,101554.94
2023-05-18T10:46:29.532Z,101551.69
2023-05-18T10:47:32.106Z,101549.97
2023-05-18T10:48:41.144Z,101559.84
2023-05-18T10:49:44.778Z,101548.09
2023-05-18T10:50:49.199Z,101544.88
2023-05-18T10:51:53.072Z,101549.31
2023-05-18T10:52:56.694Z,101553.59
2023-05-18T10:54:12.769Z,101553.91
2023-05-18T10:55:16.008Z,101546.31
2023-05-18T10:56:18.651Z,101556.38
2023-05-18T10:57:21.509Z,101556.72
2023-05-18T10:58:26.700Z,101559.28
2023-05-18T10:59:28.344Z,101536.56
2023-05-18T11:00:32.525Z,101555.47
2023-05-18T11:01:36.692Z,101551.50
2023-05-18T11:02:42.398Z,101546.44
2023-05-18T11:03:46.505Z,101548.16
2023-05-18T11:04:49.806Z,101548.16
2023-05-18T11:06:06.610Z,101547.72
2023-05-18T11:07:11.490Z,101547.13
2023-05-18T11:08:15.097Z,101554.72
2023-05-18T11:09:24.224Z,101557.56
2023-05-18T11:10:34.450Z,101553.69
2023-05-18T11:11:52.810Z,101552.50
2023-05-18T11:12:54.457Z,101548.72
2023-05-18T11:14:01.684Z,101549.94
2023-05-18T11:15:03.862Z,101540.22
2023-05-18T11:16:08.389Z,101544.22
2023-05-18T11:17:19.054Z,101542.22
2023-05-18T11:18:21.126Z,101546.53
2023-05-18T11:19:27.623Z,101546.06
2023-05-18T11:20:29.729Z,101547.28
2023-05-18T11:21:52.226Z,101539.16
2023-05-18T11:23:03.737Z,101537.94
2023-05-18T11:24:17.598Z,101526.19
2023-05-18T11:25:45.683Z,101523.47
2023-05-18T11:26:48.471Z,101523.44
2023-05-18T11:27:51.932Z,101516.56
2023-05-18T11:28:53.450Z,101526.19
2023-05-18T11:30:07.776Z,101533.69
2023-05-18T11:31:19.290Z,101531.03
2023-05-18T11:32:29.752Z,101525.31
2023-05-18T11:33:34.067Z,101539.34
2023-05-18T11:34:40.854Z,101526.31
2023-05-18T11:35:55.996Z,101528.56
2023-05-18T11:36:58.465Z,101532.03
2023-05-18T11:38:08.381Z,101524.50
2023-05-18T11:39:13.523Z,101535.84
2023-05-18T11:40:47.078Z,101525.13
2023-05-18T11:42:00.202Z,101519.22
2023-05-18T11:43:01.803Z,101512.66
2023-05-18T11:44:16.005Z,101519.75
2023-05-18T11:45:18.637Z,101532.41
2023-05-18T11:46:21.689Z,101529.66
2023-05-18T11:47:31.267Z,101529.84
2023-05-18T11:48:33.384Z,101533.09
2023-05-18T11:49:43.668Z,101523.09
2023-05-18T11:50:46.218Z,101528.28
2023-05-18T11:52:08.474Z,101523.91
2023-05-18T11:53:16.759Z,101519.38
2023-05-18T11:54:18.349Z,101513.81
2023-05-18T11:55:21.951Z,101516.63
2023-05-18T11:56:24.954Z,101521.56
2023-05-18T11:57:30.745Z,101533.09
2023-05-18T11:58:33.471Z,101529.38
2023-05-18T11:59:39.560Z,101526.56
2023-05-18T12:00:42.475Z,101535.72
2023-05-18T12:01:44.267Z,101529.81
2023-05-18T12:02:48.104Z,101534.53
2023-05-18T12:03:50.994Z,101532.53
2023-05-18T12:04:56.425Z,101535.19
2023-05-18T12:06:00.251Z,101530.88
2023-05-18T12:07:07.877Z,101521.25